sensor_id;sensor_type;location;lat;lon;timestamp;pressure;altitude;pressure_sealevel;temperature;humidity
13050;BME280;6591;51.446;5.404;2024-01-10T00:00:37;102771.66;;;2.10;39.95
13050;BME280;6591;51.446;5.404;2024-01-10T00:03:04;102764.66;;;2.07;39.20
13050;BME280;6591;51.446;5.404;2024-01-10T00:05:31;102765.47;;;2.05;39.63
13050;BME280;6591;51.446;5.404;2024-01-10T00:07:58;102768.91;;;2.02;40.13
13050;BME280;6591;51.446;5.404;2024-01-10T00:10:25;102769.72;;;2.00;40.13
13050;BME280;6591;51.446;5.404;2024-01-10T00:12:53;102769.72;;;1.98;39.82
13050;BME280;6591;51.446;5.404;2024-01-10T00:15:19;102765.28;;;1.96;39.29
13050;BME280;6591;51.446;5.404;2024-01-10T00:17:46;102757.38;;;1.94;40.27
13050;BME280;6591;51.446;5.404;2024-01-10T00:20:13;102751.25;;;1.94;40.01
13050;BME280;6591;51.446;5.404;2024-01-10T00:22:41;102754.75;;;1.93;39.47
13050;BME280;6591;51.446;5.404;2024-01-10T00:25:08;102748.63;;;1.92;40.14
13050;BME280;6591;51.446;5.404;2024-01-10T00:27:35;102752.97;;;1.92;39.67
13050;BME280;6591;51.446;5.404;2024-01-10T00:30:03;102737.25;;;1.92;39.39
13050;BME280;6591;51.446;5.404;2024-01-10T00:32:31;102740.72;;;1.91;40.12
13050;BME280;6591;51.446;5.404;2024-01-10T00:34:58;102747.66;;;1.89;39.56
13050;BME280;6591;51.446;5.404;2024-01-10T00:37:27;102738.91;;;1.87;40.02
13050;BME280;6591;51.446;5.404;2024-01-10T00:39:54;102745.03;;;1.87;39.62
13050;BME280;6591;51.446;5.404;2024-01-10T00:42:21;102746.72;;;1.85;39.44
13050;BME280;6591;51.446;5.404;2024-01-10T00:44:48;102747.56;;;1.83;39.39
13050;BME280;6591;51.446;5.404;2024-01-10T00:47:15;102744.00;;;1.81;39.87
13050;BME280;6591;51.446;5.404;2024-01-10T00:49:42;102742.19;;;1.78;39.98
13050;BME280;6591;51.446;5.404;2024-01-10T00:52:09;102756.13;;;1.76;39.37
13050;BME280;6591;51.446;5.404;2024-01-10T00:54:36;102747.34;;;1.74;39.57
13050;BME280;6591;51.446;5.404;2024-01-10T00:57:03;102745.59;;;1.73;39.21
13050;BME280;6591;51.446;5.404;2024-01-10T00:59:30;102743.72;;;1.68;40.11
13050;BME280;6591;51.446;5.404;2024-01-10T01:01:57;102743.72;;;1.67;40.40
13050;BME280;6591;51.446;5.404;2024-01-10T01:04:24;102742.78;;;1.65;39.58
13050;BME280;6591;51.446;5.404;2024-01-10T01:06:51;102740.13;;;1.62;39.70
13050;BME280;6591;51.446;5.404;2024-01-10T01:09:18;102738.31;;;1.59;40.24
13050;BME280;6591;51.446;5.404;2024-01-10T01:11:45;102739.13;;;1.57;40.12
13050;BME280;6591;51.446;5.404;2024-01-10T01:14:12;102736.38;;;1.52;39.93
13050;BME280;6591;51.446;5.404;2024-01-10T01:16:39;102739.88;;;1.51;40.36
13050;BME280;6591;51.446;5.404;2024-01-10T01:19:06;102746.75;;;1.48;40.09
13050;BME280;6591;51.446;5.404;2024-01-10T01:21:33;102742.34;;;1.45;39.72
13050;BME280;6591;51.446;5.404;2024-01-10T01:24:00;102737.91;;;1.43;39.60
13050;BME280;6591;51.446;5.404;2024-01-10T01:26:27;102735.28;;;1.41;40.12
13050;BME280;6591;51.446;5.404;2024-01-10T01:28:54;102727.31;;;1.37;39.78
13050;BME280;6591;51.446;5.404;2024-01-10T01:31:21;102730.81;;;1.36;40.33
13050;BME280;6591;51.446;5.404;2024-01-10T01:33:48;102736.84;;;1.33;40.59
13050;BME280;6591;51.446;5.404;2024-01-10T01:36:15;102730.66;;;1.31;39.85
13050;BME280;6591;51.446;5.404;2024-01-10T01:38:42;102735.88;;;1.30;40.39
13050;BME280;6591;51.446;5.404;2024-01-10T01:41:09;102728.84;;;1.27;40.53
13050;BME280;6591;51.446;5.404;2024-01-10T01:43:36;102725.34;;;1.26;39.81
13050;BME280;6591;51.446;5.404;2024-01-10T01:46:04;102725.31;;;1.25;39.77
13050;BME280;6591;51.446;5.404;2024-01-10T01:48:31;102720.84;;;1.21;40.14
13050;BME280;6591;51.446;5.404;2024-01-10T01:51:03;102723.47;;;1.21;39.98
13050;BME280;6591;51.446;5.404;2024-01-10T01:53:35;102727.78;;;1.19;40.87
13050;BME280;6591;51.446;5.404;2024-01-10T01:56:07;102728.63;;;1.18;39.89
13050;BME280;6591;51.446;5.404;2024-01-10T01:58:36;102724.25;;;1.17;40.79
13050;BME280;6591;51.446;5.404;2024-01-10T02:01:04;102725.97;;;1.16;40.42
13050;BME280;6591;51.446;5.404;2024-01-10T02:03:33;102725.97;;;1.16;40.71
13050;BME280;6591;51.446;5.404;2024-01-10T02:06:01;102722.47;;;1.16;40.29
13050;BME280;6591;51.446;5.404;2024-01-10T02:08:33;102717.19;;;1.13;40.37
13050;BME280;6591;51.446;5.404;2024-01-10T02:11:02;102725.03;;;1.13;40.42
13050;BME280;6591;51.446;5.404;2024-01-10T02:13:31;102718.91;;;1.12;40.49
13050;BME280;6591;51.446;5.404;2024-01-10T02:16:03;102717.13;;;1.11;40.31
13050;BME280;6591;51.446;5.404;2024-01-10T02:18:30;102717.13;;;1.11;40.55
13050;BME280;6591;51.446;5.404;2024-01-10T02:20:58;102713.63;;;1.11;40.66
13050;BME280;6591;51.446;5.404;2024-01-10T02:23:25;102711.91;;;1.11;41.04
13050;BME280;6591;51.446;5.404;2024-01-10T02:25:52;102711.00;;;1.11;40.87
13050;BME280;6591;51.446;5.404;2024-01-10T02:28:19;102710.19;;;1.12;40.29
13050;BME280;6591;51.446;5.404;2024-01-10T02:30:46;102719.75;;;1.11;40.77
13050;BME280;6591;51.446;5.404;2024-01-10T02:33:14;102714.53;;;1.11;40.88
13050;BME280;6591;51.446;5.404;2024-01-10T02:35:41;102711.00;;;1.11;41.03
13050;BME280;6591;51.446;5.404;2024-01-10T02:38:08;102709.28;;;1.10;41.16
13050;BME280;6591;51.446;5.404;2024-01-10T02:40:35;102713.63;;;1.09;41.26
13050;BME280;6591;51.446;5.404;2024-01-10T02:43:02;102701.38;;;1.08;40.31
13050;BME280;6591;51.446;5.404;2024-01-10T02:45:29;102703.13;;;1.08;41.11
13050;BME280;6591;51.446;5.404;2024-01-10T02:47:56;102706.63;;;1.08;40.77
13050;BME280;6591;51.446;5.404;2024-01-10T02:50:24;102705.72;;;1.08;40.96
13050;BME280;6591;51.446;5.404;2024-01-10T02:52:51;102710.06;;;1.07;41.15
13050;BME280;6591;51.446;5.404;2024-01-10T02:55:18;102704.78;;;1.06;40.89
13050;BME280;6591;51.446;5.404;2024-01-10T02:57:45;102707.41;;;1.06;40.92
13050;BME280;6591;51.446;5.404;2024-01-10T03:00:12;102701.28;;;1.05;40.29
13050;BME280;6591;51.446;5.404;2024-01-10T03:02:39;102696.91;;;1.03;40.24
13050;BME280;6591;51.446;5.404;2024-01-10T03:05:07;102702.13;;;1.03;41.32
13050;BME280;6591;51.446;5.404;2024-01-10T03:07:34;102694.19;;;1.00;40.61
13050;BME280;6591;51.446;5.404;2024-01-10T03:10:01;102686.28;;;0.97;40.57
13050;BME280;6591;51.446;5.404;2024-01-10T03:12:28;102683.66;;;0.97;40.72
13050;BME280;6591;51.446;5.404;2024-01-10T03:14:55;102688.00;;;0.96;40.53
13050;BME280;6591;51.446;5.404;2024-01-10T03:17:22;102676.63;;;0.93;40.77
13050;BME280;6591;51.446;5.404;2024-01-10T03:19:49;102674.88;;;0.93;41.10
13050;BME280;6591;51.446;5.404;2024-01-10T03:22:17;102675.78;;;0.94;41.08
13050;BME280;6591;51.446;5.404;2024-01-10T03:24:43;102674.00;;;0.93;40.99
13050;BME280;6591;51.446;5.404;2024-01-10T03:27:10;102674.03;;;0.94;41.09
13050;BME280;6591;51.446;5.404;2024-01-10T03:29:37;102668.81;;;0.96;41.41
13050;BME280;6591;51.446;5.404;2024-01-10T03:32:05;102664.53;;;0.98;41.07
13050;BME280;6591;51.446;5.404;2024-01-10T03:34:32;102668.91;;;0.99;41.57
13050;BME280;6591;51.446;5.404;2024-01-10T03:36:59;102666.31;;;1.00;41.78
13050;BME280;6591;51.446;5.404;2024-01-10T03:39:26;102667.19;;;1.01;41.09
13050;BME280;6591;51.446;5.404;2024-01-10T03:41:52;102658.50;;;1.02;40.97
13050;BME280;6591;51.446;5.404;2024-01-10T03:44:19;102661.19;;;1.03;40.96
13050;BME280;6591;51.446;5.404;2024-01-10T03:46:47;102662.06;;;1.04;41.18
13050;BME280;6591;51.446;5.404;2024-01-10T03:49:14;102655.13;;;1.06;41.65
13050;BME280;6591;51.446;5.404;2024-01-10T03:51:41;102660.34;;;1.06;41.51
13050;BME280;6591;51.446;5.404;2024-01-10T03:54:08;102656.88;;;1.07;41.24
13050;BME280;6591;51.446;5.404;2024-01-10T03:56:35;102658.66;;;1.08;40.86
13050;BME280;6591;51.446;5.404;2024-01-10T03:59:02;102652.59;;;1.09;41.20
13050;BME280;6591;51.446;5.404;2024-01-10T04:01:29;102650.88;;;1.09;41.61
13050;BME280;6591;51.446;5.404;2024-01-10T04:03:56;102648.19;;;1.08;41.55
13050;BME280;6591;51.446;5.404;2024-01-10T04:06:24;102642.97;;;1.08;41.86
13050;BME280;6591;51.446;5.404;2024-01-10T04:08:51;102648.19;;;1.08;41.12
13050;BME280;6591;51.446;5.404;2024-01-10T04:11:18;102642.97;;;1.08;41.58
13050;BME280;6591;51.446;5.404;2024-01-10T04:13:45;102651.69;;;1.08;41.41
13050;BME280;6591;51.446;5.404;2024-01-10T04:16:12;102649.09;;;1.08;41.69
13050;BME280;6591;51.446;5.404;2024-01-10T04:18:40;102644.69;;;1.07;41.74
13050;BME280;6591;51.446;5.404;2024-01-10T04:21:08;102637.69;;;1.06;41.18
13050;BME280;6591;51.446;5.404;2024-01-10T04:23:35;102637.66;;;1.05;41.27
13050;BME280;6591;51.446;5.404;2024-01-10T04:26:02;102641.16;;;1.05;41.11
13050;BME280;6591;51.446;5.404;2024-01-10T04:28:30;102633.31;;;1.04;41.02
13050;BME280;6591;51.446;5.404;2024-01-10T04:30:57;102634.19;;;1.04;41.29
13050;BME280;6591;51.446;5.404;2024-01-10T04:33:25;102635.03;;;1.05;42.14
13050;BME280;6591;51.446;5.404;2024-01-10T04:35:52;102641.16;;;1.05;41.95
13050;BME280;6591;51.446;5.404;2024-01-10T04:38:19;102644.66;;;1.06;41.11
13050;BME280;6591;51.446;5.404;2024-01-10T04:40:47;102639.44;;;1.06;41.57
13050;BME280;6591;51.446;5.404;2024-01-10T04:43:14;102634.19;;;1.06;41.60
13050;BME280;6591;51.446;5.404;2024-01-10T04:45:41;102621.97;;;1.05;42.00
13050;BME280;6591;51.446;5.404;2024-01-10T04:48:08;102628.97;;;1.06;42.26
13050;BME280;6591;51.446;5.404;2024-01-10T04:50:36;102621.13;;;1.04;41.43
13050;BME280;6591;51.446;5.404;2024-01-10T04:53:03;102628.06;;;1.04;41.25
13050;BME280;6591;51.446;5.404;2024-01-10T04:55:30;102628.97;;;1.06;41.99
13050;BME280;6591;51.446;5.404;2024-01-10T04:57:57;102631.59;;;1.06;41.81
13050;BME280;6591;51.446;5.404;2024-01-10T05:00:24;102630.69;;;1.05;41.26
13050;BME280;6591;51.446;5.404;2024-01-10T05:02:51;102631.59;;;1.06;42.20
13050;BME280;6591;51.446;5.404;2024-01-10T05:05:21;102619.34;;;1.05;42.13
13050;BME280;6591;51.446;5.404;2024-01-10T05:07:50;102624.59;;;1.05;41.83
13050;BME280;6591;51.446;5.404;2024-01-10T05:10:18;102626.34;;;1.04;42.34
13050;BME280;6591;51.446;5.404;2024-01-10T05:12:45;102631.56;;;1.04;41.37
13050;BME280;6591;51.446;5.404;2024-01-10T05:15:12;102625.47;;;1.04;42.10
13050;BME280;6591;51.446;5.404;2024-01-10T05:17:39;102627.19;;;1.05;41.69
13050;BME280;6591;51.446;5.404;2024-01-10T05:20:06;102635.03;;;1.05;41.52
13050;BME280;6591;51.446;5.404;2024-01-10T05:22:35;102637.66;;;1.05;41.21
13050;BME280;6591;51.446;5.404;2024-01-10T05:25:02;102636.81;;;1.04;41.22
13050;BME280;6591;51.446;5.404;2024-01-10T05:27:31;102629.78;;;1.03;42.33
13050;BME280;6591;51.446;5.404;2024-01-10T05:29:58;102627.13;;;1.02;42.03
13050;BME280;6591;51.446;5.404;2024-01-10T05:32:26;102635.03;;;1.03;42.26
13050;BME280;6591;51.446;5.404;2024-01-10T05:34:54;102630.63;;;1.02;42.10
13050;BME280;6591;51.446;5.404;2024-01-10T05:37:21;102632.41;;;1.03;41.78
13050;BME280;6591;51.446;5.404;2024-01-10T05:39:49;102625.38;;;1.01;41.69
13050;BME280;6591;51.446;5.404;2024-01-10T05:42:16;102631.44;;;1.00;41.89
13050;BME280;6591;51.446;5.404;2024-01-10T05:44:43;102633.19;;;0.99;41.88
13050;BME280;6591;51.446;5.404;2024-01-10T05:47:10;102633.19;;;0.99;41.98
13050;BME280;6591;51.446;5.404;2024-01-10T05:49:37;102632.31;;;0.99;41.67
13050;BME280;6591;51.446;5.404;2024-01-10T05:52:04;102629.66;;;0.97;41.64
13050;BME280;6591;51.446;5.404;2024-01-10T05:54:31;102634.00;;;0.97;41.41
13050;BME280;6591;51.446;5.404;2024-01-10T05:56:58;102629.59;;;0.94;41.91
13050;BME280;6591;51.446;5.404;2024-01-10T05:59:28;102632.16;;;0.93;42.19
13050;BME280;6591;51.446;5.404;2024-01-10T06:01:56;102625.16;;;0.92;41.34
13050;BME280;6591;51.446;5.404;2024-01-10T06:04:24;102626.84;;;0.90;41.86
13050;BME280;6591;51.446;5.404;2024-01-10T06:06:51;102620.72;;;0.88;42.41
13050;BME280;6591;51.446;5.404;2024-01-10T06:09:18;102618.09;;;0.88;42.28
13050;BME280;6591;51.446;5.404;2024-01-10T06:11:49;102624.22;;;0.90;42.32
13050;BME280;6591;51.446;5.404;2024-01-10T06:14:16;102611.16;;;0.90;41.69
13050;BME280;6591;51.446;5.404;2024-01-10T06:16:44;102618.16;;;0.91;42.47
13050;BME280;6591;51.446;5.404;2024-01-10T06:19:12;102614.66;;;0.90;41.80
13050;BME280;6591;51.446;5.404;2024-01-10T06:21:39;102610.28;;;0.89;42.03
13050;BME280;6591;51.446;5.404;2024-01-10T06:24:06;102622.50;;;0.89;42.27
13050;BME280;6591;51.446;5.404;2024-01-10T06:26:33;102613.78;;;0.88;41.79
13050;BME280;6591;51.446;5.404;2024-01-10T06:29:00;102614.56;;;0.85;42.11
13050;BME280;6591;51.446;5.404;2024-01-10T06:31:27;102613.66;;;0.83;42.21
13050;BME280;6591;51.446;5.404;2024-01-10T06:33:54;102616.28;;;0.83;42.04
13050;BME280;6591;51.446;5.404;2024-01-10T06:36:23;102621.41;;;0.80;41.77
13050;BME280;6591;51.446;5.404;2024-01-10T06:38:50;102619.66;;;0.79;42.03
13050;BME280;6591;51.446;5.404;2024-01-10T06:41:17;102623.13;;;0.78;41.72
13050;BME280;6591;51.446;5.404;2024-01-10T06:43:51;102627.44;;;0.76;42.17
13050;BME280;6591;51.446;5.404;2024-01-10T06:46:20;102626.50;;;0.74;42.06
13050;BME280;6591;51.446;5.404;2024-01-10T06:48:47;102620.38;;;0.72;41.98
13050;BME280;6591;51.446;5.404;2024-01-10T06:51:16;102632.56;;;0.72;41.86
13050;BME280;6591;51.446;5.404;2024-01-10T06:53:43;102619.44;;;0.70;41.97
13050;BME280;6591;51.446;5.404;2024-01-10T06:56:10;102622.91;;;0.69;42.50
13050;BME280;6591;51.446;5.404;2024-01-10T06:58:38;102621.13;;;0.68;42.34
13050;BME280;6591;51.446;5.404;2024-01-10T07:01:11;102622.84;;;0.66;41.94
13050;BME280;6591;51.446;5.404;2024-01-10T07:03:41;102617.59;;;0.66;41.82
13050;BME280;6591;51.446;5.404;2024-01-10T07:06:08;102622.78;;;0.65;42.27
13050;BME280;6591;51.446;5.404;2024-01-10T07:08:35;102627.97;;;0.63;42.82
13050;BME280;6591;51.446;5.404;2024-01-10T07:11:02;102621.00;;;0.62;42.09
13050;BME280;6591;51.446;5.404;2024-01-10T07:13:29;102618.34;;;0.61;42.72
13050;BME280;6591;51.446;5.404;2024-01-10T07:15:58;102614.00;;;0.61;42.85
13050;BME280;6591;51.446;5.404;2024-01-10T07:18:25;102606.13;;;0.60;43.04
13050;BME280;6591;51.446;5.404;2024-01-10T07:20:52;102610.56;;;0.64;42.81
13050;BME280;6591;51.446;5.404;2024-01-10T07:23:19;102608.84;;;0.64;42.98
13050;BME280;6591;51.446;5.404;2024-01-10T07:25:47;102611.56;;;0.69;42.66
13050;BME280;6591;51.446;5.404;2024-01-10T07:28:14;102612.44;;;0.69;43.22
13050;BME280;6591;51.446;5.404;2024-01-10T07:30:41;102602.06;;;0.72;43.16
13050;BME280;6591;51.446;5.404;2024-01-10T07:33:08;102616.03;;;0.74;42.46
13050;BME280;6591;51.446;5.404;2024-01-10T07:35:35;102612.59;;;0.75;43.07
13050;BME280;6591;51.446;5.404;2024-01-10T07:38:03;102616.13;;;0.77;42.87
13050;BME280;6591;51.446;5.404;2024-01-10T07:40:30;102612.69;;;0.78;42.46
13050;BME280;6591;51.446;5.404;2024-01-10T07:42:57;102611.81;;;0.79;42.78
13050;BME280;6591;51.446;5.404;2024-01-10T07:45:25;102607.44;;;0.78;42.67
13050;BME280;6591;51.446;5.404;2024-01-10T07:47:52;102615.31;;;0.80;43.36
13050;BME280;6591;51.446;5.404;2024-01-10T07:50:19;102616.25;;;0.82;43.01
13050;BME280;6591;51.446;5.404;2024-01-10T07:52:46;102611.06;;;0.83;42.97
13050;BME280;6591;51.446;5.404;2024-01-10T07:55:14;102614.53;;;0.84;43.36
13050;BME280;6591;51.446;5.404;2024-01-10T07:57:40;102614.56;;;0.85;42.48
13050;BME280;6591;51.446;5.404;2024-01-10T08:00:09;102614.56;;;0.85;42.70
13050;BME280;6591;51.446;5.404;2024-01-10T08:02:38;102618.91;;;0.85;42.93
13050;BME280;6591;51.446;5.404;2024-01-10T08:05:06;102621.63;;;0.90;43.13
13050;BME280;6591;51.446;5.404;2024-01-10T08:07:38;102625.22;;;0.93;42.89
13050;BME280;6591;51.446;5.404;2024-01-10T08:10:10;102628.78;;;0.97;43.17
13050;BME280;6591;51.446;5.404;2024-01-10T08:12:37;102623.69;;;1.03;42.95
13050;BME280;6591;51.446;5.404;2024-01-10T08:15:13;102631.63;;;1.07;42.72
13050;BME280;6591;51.446;5.404;2024-01-10T08:17:41;102629.94;;;1.11;42.75
13050;BME280;6591;51.446;5.404;2024-01-10T08:20:09;102631.81;;;1.15;42.70
13050;BME280;6591;51.446;5.404;2024-01-10T08:22:38;102631.91;;;1.19;42.84
13050;BME280;6591;51.446;5.404;2024-01-10T08:25:05;102630.22;;;1.23;43.25
13050;BME280;6591;51.446;5.404;2024-01-10T08:27:33;102633.88;;;1.30;43.22
13050;BME280;6591;51.446;5.404;2024-01-10T08:30:00;102632.25;;;1.35;43.28
13050;BME280;6591;51.446;5.404;2024-01-10T08:32:27;102631.50;;;1.42;43.22
13050;BME280;6591;51.446;5.404;2024-01-10T08:34:55;102636.00;;;1.49;42.78
13050;BME280;6591;51.446;5.404;2024-01-10T08:37:22;102637.00;;;1.54;43.66
13050;BME280;6591;51.446;5.404;2024-01-10T08:39:49;102638.84;;;1.59;42.61
13050;BME280;6591;51.446;5.404;2024-01-10T08:42:17;102635.53;;;1.66;43.08
13050;BME280;6591;51.446;5.404;2024-01-10T08:44:44;102640.00;;;1.74;43.28
13050;BME280;6591;51.446;5.404;2024-01-10T08:47:11;102636.66;;;1.81;43.33
13050;BME280;6591;51.446;5.404;2024-01-10T08:49:38;102635.94;;;1.88;43.13
13050;BME280;6591;51.446;5.404;2024-01-10T08:52:05;102629.09;;;1.96;43.16
13050;BME280;6591;51.446;5.404;2024-01-10T08:54:32;102638.84;;;2.03;43.35
13050;BME280;6591;51.446;5.404;2024-01-10T08:56:59;102634.56;;;2.09;43.44
13050;BME280;6591;51.446;5.404;2024-01-10T08:59:27;102630.34;;;2.15;43.44
13050;BME280;6591;51.446;5.404;2024-01-10T09:01:55;102633.94;;;2.20;42.48
13050;BME280;6591;51.446;5.404;2024-01-10T09:04:22;102640.09;;;2.23;42.96
13050;BME280;6591;51.446;5.404;2024-01-10T09:06:49;102639.25;;;2.26;43.02
13050;BME280;6591;51.446;5.404;2024-01-10T09:09:16;102635.81;;;2.28;43.43
13050;BME280;6591;51.446;5.404;2024-01-10T09:11:48;102644.59;;;2.32;43.36
13050;BME280;6591;51.446;5.404;2024-01-10T09:14:15;102636.81;;;2.35;43.22
13050;BME280;6591;51.446;5.404;2024-01-10T09:16:42;102636.03;;;2.40;43.40
13050;BME280;6591;51.446;5.404;2024-01-10T09:19:09;102635.25;;;2.47;43.53
13050;BME280;6591;51.446;5.404;2024-01-10T09:21:39;102641.53;;;2.55;42.87
13050;BME280;6591;51.446;5.404;2024-01-10T09:24:06;102634.72;;;2.67;43.39
13050;BME280;6591;51.446;5.404;2024-01-10T09:26:52;102643.63;;;2.76;42.65
13050;BME280;6591;51.446;5.404;2024-01-10T09:29:20;102637.63;;;2.85;42.67
13050;BME280;6591;51.446;5.404;2024-01-10T09:31:48;102638.63;;;2.93;42.62
13050;BME280;6591;51.446;5.404;2024-01-10T09:34:15;102639.66;;;3.03;42.49
13050;BME280;6591;51.446;5.404;2024-01-10T09:36:43;102638.03;;;3.12;42.63
13050;BME280;6591;51.446;5.404;2024-01-10T09:39:10;102637.31;;;3.22;42.33
13050;BME280;6591;51.446;5.404;2024-01-10T09:41:49;102640.03;;;3.31;42.43
13050;BME280;6591;51.446;5.404;2024-01-10T09:44:20;102641.94;;;3.40;42.86
13050;BME280;6591;51.446;5.404;2024-01-10T09:46:52;102643.78;;;3.49;42.28
13050;BME280;6591;51.446;5.404;2024-01-10T09:49:21;102649.19;;;3.61;42.26
13050;BME280;6591;51.446;5.404;2024-01-10T09:51:49;102657.22;;;3.71;42.77
13050;BME280;6591;51.446;5.404;2024-01-10T09:54:18;102654.72;;;3.82;42.53
13050;BME280;6591;51.446;5.404;2024-01-10T09:56:47;102652.19;;;3.91;41.88
13050;BME280;6591;51.446;5.404;2024-01-10T09:59:14;102662.78;;;4.00;42.18
13050;BME280;6591;51.446;5.404;2024-01-10T10:01:42;102650.59;;;4.08;41.97
13050;BME280;6591;51.446;5.404;2024-01-10T10:04:12;102644.63;;;4.21;42.13
13050;BME280;6591;51.446;5.404;2024-01-10T10:06:39;102653.50;;;4.33;42.24
13050;BME280;6591;51.446;5.404;2024-01-10T10:09:07;102649.22;;;4.45;42.36
13050;BME280;6591;51.446;5.404;2024-01-10T10:11:36;102649.38;;;4.60;42.15
13050;BME280;6591;51.446;5.404;2024-01-10T10:14:17;102652.06;;;4.71;42.22
13050;BME280;6591;51.446;5.404;2024-01-10T10:16:45;102652.19;;;4.85;41.77
13050;BME280;6591;51.446;5.404;2024-01-10T10:19:12;102643.50;;;4.96;41.87
13050;BME280;6591;51.446;5.404;2024-01-10T10:21:51;102632.16;;;5.08;41.76
13050;BME280;6591;51.446;5.404;2024-01-10T10:24:18;102628.72;;;5.17;42.18
13050;BME280;6591;51.446;5.404;2024-01-10T10:26:47;102634.00;;;5.24;41.58
13050;BME280;6591;51.446;5.404;2024-01-10T10:29:18;102626.13;;;5.30;41.75
13050;BME280;6591;51.446;5.404;2024-01-10T10:31:48;102627.94;;;5.40;41.80
13050;BME280;6591;51.446;5.404;2024-01-10T10:34:21;102631.50;;;5.50;41.03
13050;BME280;6591;51.446;5.404;2024-01-10T10:36:49;102626.28;;;5.62;41.44
13050;BME280;6591;51.446;5.404;2024-01-10T10:39:17;102623.69;;;5.73;41.22
13050;BME280;6591;51.446;5.404;2024-01-10T10:41:47;102626.34;;;5.77;41.46
13050;BME280;6591;51.446;5.404;2024-01-10T10:44:19;102614.94;;;5.83;41.46
13050;BME280;6591;51.446;5.404;2024-01-10T10:46:53;102603.53;;;5.85;40.90
13050;BME280;6591;51.446;5.404;2024-01-10T10:49:47;102605.31;;;5.92;40.96
13050;BME280;6591;51.446;5.404;2024-01-10T10:52:19;102615.00;;;6.03;40.97
13050;BME280;6591;51.446;5.404;2024-01-10T10:54:47;102608.00;;;6.05;40.39
13050;BME280;6591;51.446;5.404;2024-01-10T10:57:17;102612.38;;;6.04;40.77
13050;BME280;6591;51.446;5.404;2024-01-10T10:59:51;102610.63;;;6.05;40.92
13050;BME280;6591;51.446;5.404;2024-01-10T11:02:22;102613.28;;;6.09;40.73
13050;BME280;6591;51.446;5.404;2024-01-10T11:04:59;102608.03;;;6.12;40.53
13050;BME280;6591;51.446;5.404;2024-01-10T11:07:27;102609.78;;;6.16;40.90
13050;BME280;6591;51.446;5.404;2024-01-10T11:09:55;102612.44;;;6.22;41.03
13050;BME280;6591;51.446;5.404;2024-01-10T11:22:10;102601.00;;;6.51;41.04
13050;BME280;6591;51.446;5.404;2024-01-10T11:24:45;102591.34;;;6.63;40.96
13050;BME280;6591;51.446;5.404;2024-01-10T11:27:14;102596.59;;;6.72;41.03
13050;BME280;6591;51.446;5.404;2024-01-10T11:29:45;102591.28;;;6.81;40.56
13050;BME280;6591;51.446;5.404;2024-01-10T11:32:18;102590.41;;;6.90;40.91
13050;BME280;6591;51.446;5.404;2024-01-10T11:34:58;102587.75;;;6.99;39.92
13050;BME280;6591;51.446;5.404;2024-01-10T11:37:38;102580.69;;;7.04;40.42
13050;BME280;6591;51.446;5.404;2024-01-10T11:40:09;102576.25;;;7.12;40.16
13050;BME280;6591;51.446;5.404;2024-01-10T11:42:44;102575.34;;;7.18;39.75
13050;BME280;6591;51.446;5.404;2024-01-10T11:48:00;102569.16;;;7.30;39.81
13050;BME280;6591;51.446;5.404;2024-01-10T11:50:28;102562.97;;;7.35;40.45
13050;BME280;6591;51.446;5.404;2024-01-10T11:52:58;102558.56;;;7.40;40.06
13050;BME280;6591;51.446;5.404;2024-01-10T11:55:49;102567.34;;;7.44;40.24
13050;BME280;6591;51.446;5.404;2024-01-10T11:58:17;102563.78;;;7.51;39.96
13050;BME280;6591;51.446;5.404;2024-01-10T12:00:46;102564.59;;;7.60;40.01
13050;BME280;6591;51.446;5.404;2024-01-10T12:03:14;102557.50;;;7.70;40.14
13050;BME280;6591;51.446;5.404;2024-01-10T12:05:42;102562.72;;;7.84;40.05
13050;BME280;6591;51.446;5.404;2024-01-10T12:08:10;102572.34;;;7.94;39.69
13050;BME280;6591;51.446;5.404;2024-01-10T12:10:45;102552.88;;;8.04;39.39
13050;BME280;6591;51.446;5.404;2024-01-10T12:13:13;102553.72;;;8.09;39.29
13050;BME280;6591;51.446;5.404;2024-01-10T12:15:41;102552.81;;;8.12;39.31
13050;BME280;6591;51.446;5.404;2024-01-10T12:18:08;102549.25;;;8.19;39.41
13050;BME280;6591;51.446;5.404;2024-01-10T12:20:36;102536.84;;;8.24;39.73
13050;BME280;6591;51.446;5.404;2024-01-10T12:23:03;102542.16;;;8.25;38.98
13050;BME280;6591;51.446;5.404;2024-01-10T12:25:30;102535.97;;;8.25;38.96
13050;BME280;6591;51.446;5.404;2024-01-10T12:28:02;102535.97;;;8.23;39.11
13050;BME280;6591;51.446;5.404;2024-01-10T12:30:30;102532.44;;;8.24;39.03
13050;BME280;6591;51.446;5.404;2024-01-10T12:33:00;102543.91;;;8.26;39.39
13050;BME280;6591;51.446;5.404;2024-01-10T12:35:28;102536.84;;;8.30;39.07
13050;BME280;6591;51.446;5.404;2024-01-10T12:37:56;102537.69;;;8.33;38.79
13050;BME280;6591;51.446;5.404;2024-01-10T12:40:23;102528.84;;;8.34;38.42
13050;BME280;6591;51.446;5.404;2024-01-10T12:43:05;102535.06;;;8.30;38.89
13050;BME280;6591;51.446;5.404;2024-01-10T12:45:32;102547.44;;;8.30;38.45
13050;BME280;6591;51.446;5.404;2024-01-10T12:47:59;102537.69;;;8.27;38.63
13050;BME280;6591;51.446;5.404;2024-01-10T12:50:29;102541.25;;;8.26;38.71
13050;BME280;6591;51.446;5.404;2024-01-10T12:52:56;102543.00;;;8.27;38.63
13050;BME280;6591;51.446;5.404;2024-01-10T12:55:26;102538.56;;;8.29;39.13
13050;BME280;6591;51.446;5.404;2024-01-10T12:57:55;102530.63;;;8.29;38.49
13050;BME280;6591;51.446;5.404;2024-01-10T13:00:28;102540.34;;;8.29;38.62
13050;BME280;6591;51.446;5.404;2024-01-10T13:02:56;102539.50;;;8.24;37.90
13050;BME280;6591;51.446;5.404;2024-01-10T13:05:23;102536.00;;;8.20;38.41
13050;BME280;6591;51.446;5.404;2024-01-10T13:07:50;102536.91;;;8.18;38.50
13050;BME280;6591;51.446;5.404;2024-01-10T13:10:18;102532.53;;;8.15;38.29
13050;BME280;6591;51.446;5.404;2024-01-10T13:12:45;102531.66;;;8.12;38.07
13050;BME280;6591;51.446;5.404;2024-01-10T13:15:14;102537.88;;;8.07;37.86
13050;BME280;6591;51.446;5.404;2024-01-10T13:17:41;102532.56;;;8.06;38.19
13050;BME280;6591;51.446;5.404;2024-01-10T13:20:09;102532.63;;;8.03;38.60
13050;BME280;6591;51.446;5.404;2024-01-10T13:22:37;102532.63;;;8.03;38.49
13050;BME280;6591;51.446;5.404;2024-01-10T13:25:04;102526.47;;;7.99;37.72
13050;BME280;6591;51.446;5.404;2024-01-10T13:27:32;102523.88;;;7.95;37.41